createdAt,value
2017-02-24T00:00:41.475Z,0
2017-02-24T00:01:41.455Z,0
2017-02-24T00:02:41.451Z,0
2017-02-24T00:03:41.430Z,0
2017-02-24T00:04:41.444Z,0
2017-02-24T00:05:41.412Z,0
2017-02-24T00:06:41.391Z,0
2017-02-24T00:07:40.997Z,0
2017-02-24T00:08:41.367Z,0
2017-02-24T00:09:41.375Z,0
2017-02-24T00:10:40.945Z,0
2017-02-24T00:11:41.340Z,0
2017-02-24T00:12:40.925Z,0
2017-02-24T00:13:41.298Z,0
2017-02-24T00:14:41.312Z,0
2017-02-24T00:15:41.284Z,0
2017-02-24T00:16:40.468Z,0
2017-02-24T00:17:40.853Z,0
2017-02-24T00:18:40.853Z,0
2017-02-24T00:19:41.218Z,0
2017-02-24T00:20:41.209Z,0
2017-02-24T00:21:40.421Z,0
2017-02-24T00:22:41.181Z,0
2017-02-24T00:23:41.191Z,0
2017-02-24T00:24:41.149Z,0
2017-02-24T00:25:41.141Z,0
2017-02-24T00:26:41.132Z,0
2017-02-24T00:27:41.123Z,0
2017-02-24T00:28:41.115Z,0
2017-02-24T00:29:41.086Z,0
2017-02-24T00:30:40.677Z,0
2017-02-24T00:31:41.070Z,0
2017-02-24T00:32:41.049Z,0
2017-02-24T00:33:41.034Z,0
2017-02-24T00:34:40.619Z,0
2017-02-24T00:35:40.618Z,0
2017-02-24T00:36:40.989Z,0
2017-02-24T00:37:40.984Z,0
2017-02-24T00:38:40.571Z,0
2017-02-24T00:39:40.555Z,0
2017-02-24T00:40:40.953Z,0
2017-02-24T00:41:40.928Z,0
2017-02-24T00:42:40.928Z,0
2017-02-24T00:43:40.902Z,0
2017-02-24T00:44:40.891Z,0
2017-02-24T00:45:40.891Z,0
2017-02-24T00:46:40.901Z,0
2017-02-24T00:47:40.842Z,0
2017-02-24T00:48:40.848Z,0
2017-02-24T00:49:40.821Z,0
2017-02-24T00:50:40.817Z,0
2017-02-24T00:51:40.805Z,0
2017-02-24T00:52:40.781Z,0
2017-02-24T00:53:40.787Z,0
2017-02-24T00:54:40.755Z,0
2017-02-24T00:55:40.341Z,0
2017-02-24T00:56:40.731Z,0
2017-02-24T00:57:40.711Z,0
2017-02-24T00:58:40.703Z,0
2017-02-24T00:59:40.285Z,0
2017-02-24T01:00:40.276Z,0
2017-02-24T01:01:40.665Z,0
2017-02-24T01:02:40.654Z,0
2017-02-24T01:03:40.644Z,0
2017-02-24T01:04:40.637Z,0
2017-02-24T01:05:40.626Z,0
2017-02-24T01:06:40.596Z,0
2017-02-24T01:07:40.581Z,0
2017-02-24T01:08:40.177Z,0
2017-02-24T01:09:40.569Z,0
2017-02-24T01:10:40.544Z,0
2017-02-24T01:11:40.529Z,0
2017-02-24T01:12:40.537Z,0
2017-02-24T01:13:40.506Z,0
2017-02-24T01:14:40.103Z,0
2017-02-24T01:15:40.486Z,0
2017-02-24T01:16:40.471Z,0
2017-02-24T01:17:40.459Z,0
2017-02-24T01:18:40.440Z,0
2017-02-24T01:19:40.428Z,0
2017-02-24T01:20:40.418Z,0
2017-02-24T01:21:40.431Z,0
2017-02-24T01:22:40.396Z,0
2017-02-24T01:23:40.391Z,0
2017-02-24T01:24:40.344Z,0
2017-02-24T01:25:40.342Z,0
2017-02-24T01:26:40.330Z,0
2017-02-24T01:27:39.930Z,0
2017-02-24T01:28:40.302Z,0
2017-02-24T01:29:40.284Z,0
2017-02-24T01:30:40.308Z,0
2017-02-24T01:31:40.257Z,0
2017-02-24T01:32:40.243Z,0
2017-02-24T01:33:40.233Z,0
2017-02-24T01:34:40.236Z,0
2017-02-24T01:35:39.422Z,0
2017-02-24T01:36:40.192Z,0
2017-02-24T01:37:40.181Z,0
2017-02-24T01:38:40.205Z,0
2017-02-24T01:39:40.155Z,0
2017-02-24T01:40:40.133Z,0
2017-02-24T01:41:40.124Z,0
2017-02-24T01:42:40.131Z,0
2017-02-24T01:43:40.105Z,0
2017-02-24T01:44:40.078Z,0
2017-02-24T01:45:39.678Z,0
2017-02-24T01:46:40.054Z,0
2017-02-24T01:47:40.047Z,0
2017-02-24T01:48:40.031Z,0
2017-02-24T01:49:40.010Z,0
2017-02-24T01:50:40.008Z,0
2017-02-24T01:51:40.003Z,0
2017-02-24T01:52:39.973Z,0
2017-02-24T01:53:39.954Z,0
2017-02-24T01:54:39.953Z,0
2017-02-24T01:55:39.929Z,0
2017-02-24T01:56:39.923Z,0
2017-02-24T01:57:39.922Z,0
2017-02-24T01:58:39.892Z,0
2017-02-24T01:59:39.874Z,0
2017-02-24T02:00:39.861Z,0
2017-02-24T02:01:39.852Z,0
2017-02-24T02:02:39.837Z,0
2017-02-24T02:03:39.835Z,0
2017-02-24T02:04:39.831Z,0
2017-02-24T02:05:39.802Z,0
2017-02-24T02:06:39.820Z,0
2017-02-24T02:07:39.784Z,0
2017-02-24T02:08:39.777Z,0
2017-02-24T02:09:39.741Z,0
2017-02-24T02:10:39.738Z,0
2017-02-24T02:11:39.713Z,0
2017-02-24T02:12:39.703Z,0
2017-02-24T02:13:39.687Z,0
2017-02-24T02:14:39.674Z,0
2017-02-24T02:15:39.657Z,0
2017-02-24T02:16:39.697Z,0
2017-02-24T02:17:39.630Z,0
2017-02-24T02:18:39.629Z,0
2017-02-24T02:19:39.625Z,0
2017-02-24T02:20:39.594Z,0
2017-02-24T02:21:39.598Z,0
2017-02-24T02:22:39.571Z,0
2017-02-24T02:23:39.557Z,0
2017-02-24T02:24:39.556Z,0
2017-02-24T02:25:39.539Z,0
2017-02-24T02:26:39.513Z,0
2017-02-24T02:27:39.497Z,0
2017-02-24T02:28:39.487Z,0
2017-02-24T02:29:39.479Z,0
2017-02-24T02:30:39.452Z,0
2017-02-24T02:31:39.445Z,0
2017-02-24T02:32:39.425Z,0
2017-02-24T02:33:39.412Z,0
2017-02-24T02:34:39.405Z,0
2017-02-24T02:35:39.398Z,0
2017-02-24T02:36:42.428Z,0
2017-02-24T02:37:40.675Z,0
2017-02-24T02:38:39.368Z,0
2017-02-24T02:39:39.340Z,0
2017-02-24T02:40:39.341Z,0
2017-02-24T02:41:39.314Z,0
2017-02-24T02:42:39.298Z,0
2017-02-24T02:43:39.284Z,0
2017-02-24T02:44:39.271Z,0
2017-02-24T02:45:39.271Z,0
2017-02-24T02:46:39.240Z,0
2017-02-24T02:47:39.238Z,0
2017-02-24T02:48:39.230Z,0
2017-02-24T02:49:39.217Z,0
2017-02-24T02:50:39.211Z,0
2017-02-24T02:51:39.176Z,0
2017-02-24T02:52:38.756Z,0
2017-02-24T02:53:39.148Z,0
2017-02-24T02:54:39.135Z,0
2017-02-24T02:55:39.119Z,0
2017-02-24T02:56:39.105Z,0
2017-02-24T02:57:39.108Z,0
2017-02-24T02:58:39.087Z,0
2017-02-24T02:59:39.063Z,0
2017-02-24T03:00:39.071Z,0
2017-02-24T03:01:38.641Z,0
2017-02-24T03:02:39.032Z,0
2017-02-24T03:03:38.625Z,0
2017-02-24T03:04:39.000Z,0
2017-02-24T03:05:38.997Z,0
2017-02-24T03:06:38.966Z,0
2017-02-24T03:07:38.954Z,0
2017-02-24T03:08:38.940Z,0
2017-02-24T03:09:38.526Z,0
2017-02-24T03:10:38.932Z,0
2017-02-24T03:11:38.917Z,0
2017-02-24T03:12:39.013Z,0
2017-02-24T03:13:39.412Z,0
2017-02-24T03:14:38.856Z,0
2017-02-24T03:15:38.848Z,0
2017-02-24T03:16:38.850Z,0
2017-02-24T03:17:38.806Z,0
2017-02-24T03:18:38.407Z,0
2017-02-24T03:19:38.909Z,0
2017-02-24T03:20:38.768Z,0
2017-02-24T03:21:38.768Z,0
2017-02-24T03:22:38.759Z,0
2017-02-24T03:23:38.746Z,0
2017-02-24T03:24:38.709Z,0
2017-02-24T03:25:38.707Z,0
2017-02-24T03:26:38.700Z,0
2017-02-24T03:27:38.670Z,0
2017-02-24T03:28:38.681Z,0
2017-02-24T03:29:38.644Z,0
2017-02-24T03:30:38.634Z,0
2017-02-24T03:31:38.620Z,0
2017-02-24T03:32:38.599Z,0
2017-02-24T03:33:38.610Z,0
2017-02-24T03:34:38.577Z,0
2017-02-24T03:35:38.557Z,0
2017-02-24T03:36:38.175Z,0
2017-02-24T03:37:38.540Z,0
2017-02-24T03:38:38.534Z,0
2017-02-24T03:39:38.526Z,0
2017-02-24T03:40:38.104Z,0
2017-02-24T03:41:38.095Z,0
2017-02-24T03:42:38.063Z,0
2017-02-24T03:43:38.456Z,0
2017-02-24T03:44:38.422Z,0
2017-02-24T03:45:38.448Z,0
2017-02-24T03:46:38.408Z,0
2017-02-24T03:47:38.387Z,0
2017-02-24T03:48:38.372Z,0
2017-02-24T03:49:37.971Z,0
2017-02-24T03:50:38.353Z,0
2017-02-24T03:51:38.335Z,0
2017-02-24T03:52:38.337Z,0
2017-02-24T03:53:38.305Z,0
2017-02-24T03:54:38.298Z,0
2017-02-24T03:55:38.281Z,0
2017-02-24T03:56:38.267Z,0
2017-02-24T03:57:38.263Z,0
2017-02-24T03:58:38.242Z,0
2017-02-24T03:59:38.214Z,0
2017-02-24T04:00:38.199Z,0
2017-02-24T04:01:38.192Z,0
2017-02-24T04:02:38.183Z,0
2017-02-24T04:03:37.780Z,0
2017-02-24T04:04:38.160Z,0
2017-02-24T04:05:38.147Z,0
2017-02-24T04:06:38.118Z,0
2017-02-24T04:07:38.104Z,0
2017-02-24T04:08:38.090Z,0
2017-02-24T04:09:38.087Z,0
2017-02-24T04:10:38.080Z,0
2017-02-24T04:11:38.054Z,0
2017-02-24T04:12:38.040Z,0
2017-02-24T04:13:38.028Z,0
2017-02-24T04:14:37.999Z,0
2017-02-24T04:15:38.004Z,0
2017-02-24T04:16:37.972Z,0
2017-02-24T04:17:37.965Z,0
2017-02-24T04:18:37.951Z,0
2017-02-24T04:19:37.533Z,0
2017-02-24T04:20:37.934Z,0
2017-02-24T04:21:37.905Z,0
2017-02-24T04:22:37.514Z,0
2017-02-24T04:23:37.873Z,0
2017-02-24T04:24:37.942Z,0
2017-02-24T04:25:37.838Z,0
2017-02-24T04:26:37.433Z,0
2017-02-24T04:27:37.812Z,0
2017-02-24T04:28:37.809Z,0
2017-02-24T04:29:37.801Z,0
2017-02-24T04:30:37.783Z,0
2017-02-24T04:31:37.750Z,0
2017-02-24T04:32:37.735Z,0
2017-02-24T04:33:37.725Z,0
2017-02-24T04:34:37.701Z,0
2017-02-24T04:35:37.689Z,0
2017-02-24T04:36:37.686Z,0
2017-02-24T04:37:37.672Z,0
2017-02-24T04:38:37.677Z,0
2017-02-24T04:39:37.636Z,0
2017-02-24T04:40:37.619Z,0
2017-02-24T04:41:37.645Z,0
2017-02-24T04:42:37.588Z,0
2017-02-24T04:43:37.597Z,0
2017-02-24T04:44:37.557Z,0
2017-02-24T04:45:37.546Z,0
2017-02-24T04:46:37.166Z,0
2017-02-24T04:47:37.532Z,0
2017-02-24T04:48:37.507Z,0
2017-02-24T04:49:37.504Z,0
2017-02-24T04:50:37.467Z,0
2017-02-24T04:51:37.457Z,0
2017-02-24T04:52:36.655Z,0
2017-02-24T04:53:37.435Z,0
2017-02-24T04:54:37.023Z,0
2017-02-24T04:55:37.405Z,0
2017-02-24T04:56:37.379Z,0
2017-02-24T04:57:37.364Z,0
2017-02-24T04:58:37.347Z,0
2017-02-24T04:59:37.336Z,0
2017-02-24T05:00:37.330Z,0
2017-02-24T05:01:37.315Z,0
2017-02-24T05:02:37.342Z,0
2017-02-24T05:03:37.282Z,0
2017-02-24T05:04:37.289Z,0
2017-02-24T05:05:37.243Z,0
2017-02-24T05:06:37.249Z,0
2017-02-24T05:07:37.217Z,0
2017-02-24T05:08:37.196Z,0
2017-02-24T05:09:37.178Z,0
2017-02-24T05:10:36.374Z,0
2017-02-24T05:11:37.163Z,0
2017-02-24T05:12:36.748Z,0
2017-02-24T05:13:37.131Z,0
2017-02-24T05:14:37.109Z,0
2017-02-24T05:15:37.092Z,0
2017-02-24T05:16:37.068Z,0
2017-02-24T05:17:37.068Z,0
2017-02-24T05:18:37.051Z,0
2017-02-24T05:19:37.030Z,0
2017-02-24T05:20:37.008Z,0
2017-02-24T05:21:37.017Z,0
2017-02-24T05:22:36.997Z,0
2017-02-24T05:23:36.591Z,0
2017-02-24T05:24:36.953Z,0
2017-02-24T05:25:36.936Z,0
2017-02-24T05:26:36.521Z,0
2017-02-24T05:27:36.128Z,0
2017-02-24T05:28:36.496Z,0
2017-02-24T05:29:36.476Z,0
2017-02-24T05:30:36.882Z,0
2017-02-24T05:31:36.479Z,0
2017-02-24T05:32:36.838Z,0
2017-02-24T05:33:36.420Z,0
2017-02-24T05:34:36.798Z,0
2017-02-24T05:35:36.388Z,0
2017-02-24T05:36:36.773Z,0
2017-02-24T05:37:36.766Z,0
2017-02-24T05:38:36.347Z,0
2017-02-24T05:39:36.717Z,0
2017-02-24T05:40:36.713Z,0
2017-02-24T05:41:36.698Z,0
2017-02-24T05:42:36.669Z,4
2017-02-24T05:43:36.658Z,4
2017-02-24T05:44:36.650Z,0
2017-02-24T05:45:36.637Z,4
2017-02-24T05:46:36.617Z,4
2017-02-24T05:47:36.646Z,4
2017-02-24T05:48:36.186Z,4
2017-02-24T05:49:36.582Z,4
2017-02-24T05:50:36.163Z,8
2017-02-24T05:51:36.530Z,8
2017-02-24T05:52:36.133Z,12
2017-02-24T05:53:36.119Z,16
2017-02-24T05:54:36.086Z,20
2017-02-24T05:55:36.485Z,24
2017-02-24T05:56:36.457Z,32
2017-02-24T05:57:36.055Z,44
2017-02-24T05:58:36.035Z,40
2017-02-24T05:59:36.014Z,44
2017-02-24T06:00:36.413Z,60
2017-02-24T06:01:36.379Z,56
2017-02-24T06:02:36.379Z,72
2017-02-24T06:03:36.359Z,108
2017-02-24T06:04:36.339Z,124
2017-02-24T06:05:36.332Z,120
2017-02-24T06:06:36.316Z,120
2017-02-24T06:07:36.304Z,108
2017-02-24T06:08:36.290Z,80
2017-02-24T06:09:36.265Z,88
2017-02-24T06:10:36.244Z,140
2017-02-24T06:11:36.245Z,152
2017-02-24T06:12:36.214Z,232
2017-02-24T06:13:36.202Z,244
2017-02-24T06:14:36.182Z,256
2017-02-24T06:15:36.168Z,256
2017-02-24T06:16:36.179Z,236
2017-02-24T06:17:36.142Z,208
2017-02-24T06:18:36.126Z,180
2017-02-24T06:19:35.714Z,168
2017-02-24T06:20:36.083Z,160
2017-02-24T06:21:36.098Z,296
2017-02-24T06:22:36.059Z,348
2017-02-24T06:23:36.058Z,380
2017-02-24T06:24:36.027Z,376
2017-02-24T06:25:36.016Z,352
2017-02-24T06:26:35.605Z,428
2017-02-24T06:27:35.983Z,432
2017-02-24T06:28:35.982Z,444
2017-02-24T06:29:35.968Z,524
2017-02-24T06:30:35.936Z,580
2017-02-24T06:31:35.927Z,644
2017-02-24T06:32:35.905Z,664
2017-02-24T06:33:35.884Z,652
2017-02-24T06:34:35.876Z,772
2017-02-24T06:35:35.877Z,840
2017-02-24T06:36:35.839Z,900
2017-02-24T06:37:35.420Z,884
2017-02-24T06:38:35.419Z,880
2017-02-24T06:39:35.790Z,812
2017-02-24T06:40:35.771Z,764
2017-02-24T06:41:34.972Z,824
2017-02-24T06:42:35.734Z,692
2017-02-24T06:43:35.730Z,588
2017-02-24T06:44:35.712Z,616
2017-02-24T06:45:35.694Z,640
2017-02-24T06:46:35.687Z,672
2017-02-24T06:47:35.662Z,640
2017-02-24T06:48:35.657Z,732
2017-02-24T06:49:35.653Z,752
2017-02-24T06:50:35.614Z,676
2017-02-24T06:51:35.626Z,540
2017-02-24T06:52:35.582Z,604
2017-02-24T06:53:35.572Z,652
2017-02-24T06:54:35.156Z,680
2017-02-24T06:55:35.136Z,988
2017-02-24T06:56:35.526Z,1356
2017-02-24T06:57:35.500Z,1588
2017-02-24T06:58:35.102Z,1572
2017-02-24T06:59:35.093Z,1488
2017-02-24T07:00:35.080Z,1580
2017-02-24T07:01:35.060Z,1692
2017-02-24T07:02:35.067Z,1768
2017-02-24T07:03:35.022Z,1676
2017-02-24T07:04:35.403Z,1660
2017-02-24T07:05:35.399Z,1500
2017-02-24T07:06:34.964Z,1220
2017-02-24T07:07:34.958Z,1164
2017-02-24T07:08:34.957Z,1168
2017-02-24T07:09:34.935Z,948
2017-02-24T07:10:34.948Z,840
2017-02-24T07:11:35.285Z,704
2017-02-24T07:12:35.271Z,756
2017-02-24T07:13:34.879Z,952
2017-02-24T07:14:35.238Z,1164
2017-02-24T07:15:35.220Z,1236
2017-02-24T07:16:35.221Z,1112
2017-02-24T07:17:35.203Z,932
2017-02-24T07:18:35.179Z,896
2017-02-24T07:19:35.172Z,912
2017-02-24T07:20:35.144Z,992
2017-02-24T07:21:35.127Z,1152
2017-02-24T07:22:35.123Z,1700
2017-02-24T07:23:35.114Z,2200
2017-02-24T07:24:35.085Z,2216
2017-02-24T07:25:35.077Z,2060
2017-02-24T07:26:35.056Z,1740
2017-02-24T07:27:35.034Z,1504
2017-02-24T07:28:35.060Z,1400
2017-02-24T07:29:35.006Z,1492
2017-02-24T07:30:35.011Z,1840
2017-02-24T07:31:34.576Z,2136
2017-02-24T07:32:34.972Z,2188
2017-02-24T07:33:34.964Z,1968
2017-02-24T07:34:34.938Z,1716
2017-02-24T07:35:34.522Z,1688
2017-02-24T07:36:34.125Z,1868
2017-02-24T07:37:34.892Z,2408
2017-02-24T07:38:34.886Z,3172
2017-02-24T07:39:34.470Z,3428
2017-02-24T07:40:34.438Z,2988
2017-02-24T07:41:34.439Z,3012
2017-02-24T07:42:34.427Z,3488
2017-02-24T07:43:34.394Z,3892
2017-02-24T07:44:34.775Z,3888
2017-02-24T07:45:34.371Z,3012
2017-02-24T07:46:34.347Z,2664
2017-02-24T07:47:34.743Z,2616
2017-02-24T07:48:34.710Z,3168
2017-02-24T07:49:34.306Z,3576
2017-02-24T07:50:34.699Z,4376
2017-02-24T07:51:34.679Z,5216
2017-02-24T07:52:34.263Z,6288
2017-02-24T07:53:34.245Z,6848
2017-02-24T07:54:34.242Z,5632
2017-02-24T07:55:34.610Z,4852
2017-02-24T07:56:34.599Z,5068
2017-02-24T07:57:34.211Z,4424
2017-02-24T07:58:34.181Z,2776
2017-02-24T07:59:34.546Z,2392
2017-02-24T08:00:34.148Z,2680
2017-02-24T08:01:34.127Z,2740
2017-02-24T08:02:34.505Z,3116
2017-02-24T08:03:34.499Z,3100
2017-02-24T08:04:34.483Z,3904
2017-02-24T08:05:34.080Z,4904
2017-02-24T08:06:34.516Z,5624
2017-02-24T08:07:34.046Z,6924
2017-02-24T08:08:34.422Z,6364
2017-02-24T08:09:34.394Z,4440
2017-02-24T08:10:34.396Z,3924
2017-02-24T08:11:34.367Z,3704
2017-02-24T08:12:34.379Z,3184
2017-02-24T08:13:34.340Z,3388
2017-02-24T08:14:34.331Z,3016
2017-02-24T08:15:34.332Z,2468
2017-02-24T08:16:34.302Z,2388
2017-02-24T08:17:34.306Z,2560
2017-02-24T08:18:34.278Z,1900
2017-02-24T08:19:34.266Z,1464
2017-02-24T08:20:33.856Z,1496
2017-02-24T08:21:34.238Z,1372
2017-02-24T08:22:34.207Z,960
2017-02-24T08:23:33.788Z,944
2017-02-24T08:24:34.184Z,2884
2017-02-24T08:25:34.162Z,4484
2017-02-24T08:26:34.176Z,6088
2017-02-24T08:27:34.132Z,6580
2017-02-24T08:28:34.129Z,6848
2017-02-24T08:29:34.101Z,6956
2017-02-24T08:30:34.094Z,6880
2017-02-24T08:31:34.077Z,6648
2017-02-24T08:32:34.067Z,6328
2017-02-24T08:33:34.049Z,6096
2017-02-24T08:34:34.032Z,5896
2017-02-24T08:35:34.016Z,5936
2017-02-24T08:36:34.001Z,5872
2017-02-24T08:37:33.580Z,5576
2017-02-24T08:38:33.973Z,5404
2017-02-24T08:39:33.546Z,5368
2017-02-24T08:40:33.551Z,4492
2017-02-24T08:41:33.936Z,2900
2017-02-24T08:42:33.898Z,2728
2017-02-24T08:43:33.887Z,3996
2017-02-24T08:44:33.867Z,4428
2017-02-24T08:45:33.862Z,4144
2017-02-24T08:46:33.852Z,4444
2017-02-24T08:47:33.816Z,4344
2017-02-24T08:48:33.801Z,3816
2017-02-24T08:49:33.795Z,3388
2017-02-24T08:50:33.783Z,2768
2017-02-24T08:51:33.781Z,2584
2017-02-24T08:52:33.772Z,2780
2017-02-24T08:53:33.740Z,2924
2017-02-24T08:54:33.726Z,3008
2017-02-24T08:55:33.693Z,3232
2017-02-24T08:56:33.695Z,3996
2017-02-24T08:57:33.678Z,4812
2017-02-24T08:58:33.251Z,6008
2017-02-24T08:59:33.665Z,6704
2017-02-24T09:00:33.636Z,6996
2017-02-24T09:01:32.865Z,6948
2017-02-24T09:02:33.181Z,7624
2017-02-24T09:03:33.179Z,8316
2017-02-24T09:04:33.555Z,8864
2017-02-24T09:05:33.545Z,8504
2017-02-24T09:06:33.530Z,9544
2017-02-24T09:07:33.510Z,8416
2017-02-24T09:08:33.108Z,8960
2017-02-24T09:09:33.507Z,8164
2017-02-24T09:10:33.460Z,7888
2017-02-24T09:11:33.455Z,9240
2017-02-24T09:12:33.443Z,7624
2017-02-24T09:13:33.011Z,7088
2017-02-24T09:14:33.409Z,7396
2017-02-24T09:15:33.392Z,7020
2017-02-24T09:16:33.375Z,6796
2017-02-24T09:17:33.360Z,6572
2017-02-24T09:18:33.352Z,6720
2017-02-24T09:19:33.322Z,7760
2017-02-24T09:20:33.325Z,7328
2017-02-24T09:21:33.302Z,7100
2017-02-24T09:22:33.272Z,4880
2017-02-24T09:23:33.282Z,4312
2017-02-24T09:24:33.249Z,4544
2017-02-24T09:25:32.834Z,4012
2017-02-24T09:26:33.228Z,3624
2017-02-24T09:27:33.203Z,3776
2017-02-24T09:28:33.187Z,4616
2017-02-24T09:29:33.217Z,5964
2017-02-24T09:30:33.158Z,5908
2017-02-24T09:31:32.744Z,5604
2017-02-24T09:32:32.732Z,5684
2017-02-24T09:33:32.736Z,5624
2017-02-24T09:34:32.723Z,5712
2017-02-24T09:35:32.689Z,5896
2017-02-24T09:36:32.670Z,5816
2017-02-24T09:37:33.059Z,5992
2017-02-24T09:38:33.035Z,5836
2017-02-24T09:39:33.021Z,5236
2017-02-24T09:40:32.605Z,4556
2017-02-24T09:41:33.006Z,4060
2017-02-24T09:42:32.974Z,3676
2017-02-24T09:43:32.580Z,3860
2017-02-24T09:44:32.957Z,3544
2017-02-24T09:45:32.940Z,3760
2017-02-24T09:46:32.925Z,4024
2017-02-24T09:47:32.892Z,4616
2017-02-24T09:48:32.898Z,5172
2017-02-24T09:49:32.878Z,4804
2017-02-24T09:50:32.870Z,4588
2017-02-24T09:51:32.838Z,4848
2017-02-24T09:52:32.819Z,4648
2017-02-24T09:53:32.430Z,5132
2017-02-24T09:54:32.396Z,5724
2017-02-24T09:55:32.779Z,4784
2017-02-24T09:56:32.767Z,4860
2017-02-24T09:57:32.762Z,4812
2017-02-24T09:58:32.754Z,4172
2017-02-24T09:59:32.719Z,4200
2017-02-24T10:00:32.722Z,4848
2017-02-24T10:01:32.683Z,4712
2017-02-24T10:02:32.673Z,4316
2017-02-24T10:03:32.650Z,4392
2017-02-24T10:04:32.238Z,3984
2017-02-24T10:05:32.621Z,3700
2017-02-24T10:06:32.609Z,3784
2017-02-24T10:07:32.620Z,3792
2017-02-24T10:08:32.579Z,4744
2017-02-24T10:09:32.578Z,5576
2017-02-24T10:10:32.557Z,5880
2017-02-24T10:11:32.533Z,5876
2017-02-24T10:12:32.523Z,6200
2017-02-24T10:13:32.503Z,6088
2017-02-24T10:14:32.481Z,6832
2017-02-24T10:15:32.467Z,7572
2017-02-24T10:16:32.459Z,7400
2017-02-24T10:17:32.447Z,7324
2017-02-24T10:18:32.431Z,7116
2017-02-24T10:19:32.408Z,7636
2017-02-24T10:20:32.412Z,8200
2017-02-24T10:21:31.990Z,7552
2017-02-24T10:22:32.370Z,6760
2017-02-24T10:23:31.965Z,6948
2017-02-24T10:24:32.337Z,7324
2017-02-24T10:25:32.314Z,8264
2017-02-24T10:26:32.313Z,8848
2017-02-24T10:27:32.301Z,8344
2017-02-24T10:28:32.303Z,7132
2017-02-24T10:29:32.273Z,5712
2017-02-24T10:30:31.860Z,4960
2017-02-24T10:31:31.844Z,4976
2017-02-24T10:32:32.234Z,5240
2017-02-24T10:33:32.224Z,5060
2017-02-24T10:34:32.205Z,4804
2017-02-24T10:35:32.189Z,5368
2017-02-24T10:36:31.378Z,6300
2017-02-24T10:37:32.141Z,7008
2017-02-24T10:38:32.150Z,6872
2017-02-24T10:39:31.341Z,6560
2017-02-24T10:40:32.102Z,6456
2017-02-24T10:41:32.088Z,5684
2017-02-24T10:42:32.079Z,4876
2017-02-24T10:43:32.058Z,4100
2017-02-24T10:44:32.037Z,3824
2017-02-24T10:45:32.020Z,3464
2017-02-24T10:46:32.015Z,3088
2017-02-24T10:47:31.988Z,2948
2017-02-24T10:48:31.980Z,2772
2017-02-24T10:49:31.960Z,2756
2017-02-24T10:50:31.990Z,2604
2017-02-24T10:51:31.948Z,2644
2017-02-24T10:52:31.517Z,2764
2017-02-24T10:53:31.903Z,2820
2017-02-24T10:54:31.891Z,2904
2017-02-24T10:55:31.478Z,3048
2017-02-24T10:56:31.062Z,3496
2017-02-24T10:57:31.841Z,3152
2017-02-24T10:58:31.822Z,3148
2017-02-24T10:59:31.831Z,3220
2017-02-24T11:00:31.821Z,3380
2017-02-24T11:01:31.832Z,3780
2017-02-24T11:02:31.792Z,4744
2017-02-24T11:03:31.762Z,6324
2017-02-24T11:04:31.760Z,7104
2017-02-24T11:05:31.733Z,7456
2017-02-24T11:06:31.318Z,7908
2017-02-24T11:07:31.696Z,8096
2017-02-24T11:08:31.278Z,7552
2017-02-24T11:09:31.297Z,7060
2017-02-24T11:10:31.281Z,6824
2017-02-24T11:11:31.652Z,6424
2017-02-24T11:12:31.620Z,5976
2017-02-24T11:13:31.609Z,5584
2017-02-24T11:14:31.191Z,4700
2017-02-24T11:15:31.586Z,4468
2017-02-24T11:16:31.571Z,4740
2017-02-24T11:17:31.546Z,4764
2017-02-24T11:18:31.565Z,4556
2017-02-24T11:19:31.521Z,4368
2017-02-24T11:20:30.736Z,4156
2017-02-24T11:21:31.496Z,4424
2017-02-24T11:22:31.478Z,5192
2017-02-24T11:23:31.473Z,6296
2017-02-24T11:24:31.457Z,7216
2017-02-24T11:25:31.442Z,7840
2017-02-24T11:26:31.432Z,8796
2017-02-24T11:27:31.415Z,9924
2017-02-24T11:28:30.620Z,10868
2017-02-24T11:29:31.379Z,10652
2017-02-24T11:30:31.384Z,9436
2017-02-24T11:31:31.356Z,7868
2017-02-24T11:32:30.965Z,6848
2017-02-24T11:33:31.334Z,6776
2017-02-24T11:34:31.309Z,7756
2017-02-24T11:35:30.894Z,7932
2017-02-24T11:36:31.277Z,7328
2017-02-24T11:37:31.276Z,7220
2017-02-24T11:38:31.272Z,7600
2017-02-24T11:39:30.843Z,7616
2017-02-24T11:40:31.249Z,8088
2017-02-24T11:41:31.226Z,7784
2017-02-24T11:42:31.213Z,7208
2017-02-24T11:43:30.804Z,6708
2017-02-24T11:44:31.174Z,5788
2017-02-24T11:45:31.158Z,5224
2017-02-24T11:46:31.147Z,5344
2017-02-24T11:47:31.142Z,5280
2017-02-24T11:48:31.119Z,5316
2017-02-24T11:49:30.732Z,5476
2017-02-24T11:50:30.700Z,5672
2017-02-24T11:51:31.077Z,5184
2017-02-24T11:52:31.080Z,4680
2017-02-24T11:53:31.053Z,4656
2017-02-24T11:54:30.635Z,4868
2017-02-24T11:55:30.626Z,5436
2017-02-24T11:56:30.625Z,6016
2017-02-24T11:57:30.620Z,6428
2017-02-24T11:58:30.993Z,6524
2017-02-24T11:59:30.985Z,6356
2017-02-24T12:00:30.954Z,5888
2017-02-24T12:01:30.944Z,5036
2017-02-24T12:02:30.921Z,4428
2017-02-24T12:03:30.920Z,4420
2017-02-24T12:04:30.502Z,4604
2017-02-24T12:05:30.881Z,4744
2017-02-24T12:06:30.886Z,5220
2017-02-24T12:07:30.463Z,5796
2017-02-24T12:08:30.840Z,6060
2017-02-24T12:09:30.828Z,5724
2017-02-24T12:10:30.821Z,4940
2017-02-24T12:11:30.434Z,4296
2017-02-24T12:12:30.808Z,4092
2017-02-24T12:13:30.779Z,4812
2017-02-24T12:14:30.775Z,5920
2017-02-24T12:15:30.749Z,6632
2017-02-24T12:16:30.734Z,6820
2017-02-24T12:17:30.722Z,6856
2017-02-24T12:18:30.703Z,7232
2017-02-24T12:19:30.335Z,7684
2017-02-24T12:20:30.672Z,7468
2017-02-24T12:21:30.667Z,6884
2017-02-24T12:22:29.845Z,6728
2017-02-24T12:23:30.625Z,6908
2017-02-24T12:24:30.609Z,7028
2017-02-24T12:25:30.199Z,6792
2017-02-24T12:26:30.603Z,6228
2017-02-24T12:27:30.586Z,5672
2017-02-24T12:28:30.160Z,5300
2017-02-24T12:29:30.554Z,4868
2017-02-24T12:30:30.535Z,4420
2017-02-24T12:31:30.518Z,3824
2017-02-24T12:32:30.508Z,3280
2017-02-24T12:33:30.530Z,3096
2017-02-24T12:34:30.467Z,3176
2017-02-24T12:35:30.531Z,2892
2017-02-24T12:36:30.154Z,2952
2017-02-24T12:37:30.445Z,3576
2017-02-24T12:38:30.912Z,4220
2017-02-24T12:39:30.968Z,4732
2017-02-24T12:40:30.533Z,4016
2017-02-24T12:41:30.911Z,3176
2017-02-24T12:42:30.701Z,2872
2017-02-24T12:43:30.477Z,2884
2017-02-24T12:44:30.030Z,3116
2017-02-24T12:45:30.700Z,3464
2017-02-24T12:46:30.601Z,3396
2017-02-24T12:47:30.823Z,3220
2017-02-24T12:48:30.364Z,4040
2017-02-24T12:49:30.700Z,4940
2017-02-24T12:50:30.001Z,5216
2017-02-24T12:51:30.673Z,5612
2017-02-24T12:52:29.672Z,5936
2017-02-24T12:53:30.319Z,6380
2017-02-24T12:54:30.854Z,6032
2017-02-24T12:55:30.525Z,5292
2017-02-24T12:56:30.731Z,5028
2017-02-24T12:57:30.741Z,5472
2017-02-24T12:58:29.736Z,5344
2017-02-24T12:59:30.029Z,5280
2017-02-24T13:00:30.123Z,5164
2017-02-24T13:01:30.622Z,5452
2017-02-24T13:02:30.350Z,5612
2017-02-24T13:03:30.018Z,5924
2017-02-24T13:04:30.542Z,5972
2017-02-24T13:05:30.567Z,6020
2017-02-24T13:06:29.908Z,6504
2017-02-24T13:07:29.984Z,6280
2017-02-24T13:08:29.846Z,6036
2017-02-24T13:09:30.839Z,5488
2017-02-24T13:10:30.164Z,4844
2017-02-24T13:11:29.959Z,4120
2017-02-24T13:12:30.645Z,3908
2017-02-24T13:13:29.963Z,3824
2017-02-24T13:14:30.747Z,3248
2017-02-24T13:15:30.583Z,2220
2017-02-24T13:16:29.862Z,2064
2017-02-24T13:17:29.853Z,2188
2017-02-24T13:18:29.852Z,2776
2017-02-24T13:19:29.816Z,3884
2017-02-24T13:20:29.800Z,4948
2017-02-24T13:21:29.780Z,5136
2017-02-24T13:22:29.376Z,4812
2017-02-24T13:23:29.753Z,4828
2017-02-24T13:24:29.748Z,4844
2017-02-24T13:25:29.717Z,4188
2017-02-24T13:26:29.723Z,4044
2017-02-24T13:27:29.324Z,4088
2017-02-24T13:28:29.291Z,3972
2017-02-24T13:29:29.280Z,3400
2017-02-24T13:30:29.646Z,2924
2017-02-24T13:31:29.645Z,2716
2017-02-24T13:32:29.625Z,2588
2017-02-24T13:33:29.634Z,2484
2017-02-24T13:34:29.199Z,2724
2017-02-24T13:35:29.592Z,4312
2017-02-24T13:36:29.559Z,6428
2017-02-24T13:37:29.148Z,7328
2017-02-24T13:38:29.542Z,7024
2017-02-24T13:39:29.129Z,6892
2017-02-24T13:40:29.117Z,6760
2017-02-24T13:41:29.501Z,6788
2017-02-24T13:42:29.475Z,7064
2017-02-24T13:43:29.607Z,7064
2017-02-24T13:44:29.445Z,7032
2017-02-24T13:45:29.439Z,6940
2017-02-24T13:46:29.448Z,6732
2017-02-24T13:47:30.066Z,6172
2017-02-24T13:48:29.523Z,5564
2017-02-24T13:49:29.370Z,4588
2017-02-24T13:50:29.376Z,3608
2017-02-24T13:51:28.974Z,2792
2017-02-24T13:52:29.335Z,2656
2017-02-24T13:53:29.330Z,3584
2017-02-24T13:54:29.295Z,4476
2017-02-24T13:55:28.886Z,4780
2017-02-24T13:56:29.271Z,4820